Time;durP1;ratioP1;P1;durP2;ratioP2;P2;SDS_P1;SDS_P2;PMS_P1;PMS_P2;Temp;Humidity;BMP_temperature;BMP_pressure;BME280_temperature;BME280_humidity;BME280_pressure;Samples;Min_cycle;Max_cycle;Signal;HPM_P1;HPM_P2
2024/01/10 00:02:24;;;;;;;131.60;51.60;;;;;;;-7.64;83.47;102527.77;52582;1257;1100707;-82
2024/01/10 00:05:10;;;;;;;129.10;48.00;;;;;;;-7.65;83.31;102526.23;52571;1260;1101155;-82
2024/01/10 00:07:56;;;;;;;151.10;57.00;;;;;;;-7.64;83.58;102530.71;52608;1259;1101513;-82
2024/01/10 00:10:42;;;;;;;138.80;54.30;;;;;;;-7.61;83.53;102531.71;52498;1258;1101150;-82
2024/01/10 00:13:28;;;;;;;148.80;56.30;;;;;;;-7.60;83.67;102530.48;52306;1260;1101478;-82
2024/01/10 00:16:14;;;;;;;124.40;50.40;;;;;;;-7.59;83.37;102523.85;52408;1263;1100864;-82
2024/01/10 00:19:00;;;;;;;124.70;53.50;;;;;;;-7.62;83.20;102520.96;52281;1257;1101599;-82
2024/01/10 00:21:46;;;;;;;139.10;51.20;;;;;;;-7.65;83.58;102517.38;52388;1258;1100547;-82
2024/01/10 00:24:31;;;;;;;142.10;54.10;;;;;;;-7.66;83.42;102517.23;52438;1260;1100988;-81
2024/01/10 00:27:17;;;;;;;137.90;55.70;;;;;;;-7.69;83.71;102516.92;52455;1257;1100710;-82
2024/01/10 00:30:05;;;;;;;138.10;52.80;;;;;;;-7.70;83.78;102511.39;52554;1256;1101014;-82
2024/01/10 00:32:51;;;;;;;142.20;54.10;;;;;;;-7.74;83.44;102504.17;52466;1264;1100289;-82
2024/01/10 00:35:37;;;;;;;138.00;54.10;;;;;;;-7.75;83.91;102502.80;52388;1258;1101579;-82
2024/01/10 00:38:22;;;;;;;127.00;50.90;;;;;;;-7.74;83.98;102505.04;52536;1256;1101175;-82
2024/01/10 00:41:08;;;;;;;140.80;53.60;;;;;;;-7.74;83.90;102511.98;52516;1261;1101764;-83
2024/01/10 00:43:53;;;;;;;128.90;52.80;;;;;;;-7.75;84.10;102513.88;52334;1256;1101481;-83
2024/01/10 00:46:39;;;;;;;150.90;57.60;;;;;;;-7.74;83.94;102509.19;52259;1267;1100814;-82
2024/01/10 00:49:25;;;;;;;134.90;52.70;;;;;;;-7.71;83.80;102506.21;52641;1257;1102167;-82
2024/01/10 00:52:10;;;;;;;137.20;52.40;;;;;;;-7.71;83.87;102512.45;52522;1263;1100984;-82
2024/01/10 00:54:56;;;;;;;126.00;51.00;;;;;;;-7.70;83.96;102513.99;52388;1261;1101814;-82
2024/01/10 00:57:41;;;;;;;129.60;53.00;;;;;;;-7.70;83.84;102509.48;52405;1259;1101716;-82
2024/01/10 01:00:27;;;;;;;139.00;54.80;;;;;;;-7.70;83.87;102503.23;52475;1257;1101207;-82
2024/01/10 01:03:12;;;;;;;147.10;54.60;;;;;;;-7.70;84.04;102509.14;52505;1260;1101354;-84
2024/01/10 01:05:59;;;;;;;138.50;56.90;;;;;;;-7.68;84.17;102515.36;52412;1255;1100358;-82
2024/01/10 01:08:45;;;;;;;150.80;57.40;;;;;;;-7.66;83.77;102518.44;52380;1261;1100975;-82
2024/01/10 01:11:30;;;;;;;131.60;52.60;;;;;;;-7.65;84.03;102520.15;52344;1256;1100486;-83
2024/01/10 01:14:16;;;;;;;139.00;55.50;;;;;;;-7.66;83.71;102510.62;52580;1261;1101263;-82
2024/01/10 01:17:02;;;;;;;145.60;59.80;;;;;;;-7.67;83.81;102508.73;52555;1261;1100288;-83
2024/01/10 01:19:47;;;;;;;139.30;54.60;;;;;;;-7.65;83.95;102511.13;52499;1260;1100953;-81
2024/01/10 01:22:33;;;;;;;134.20;49.90;;;;;;;-7.67;83.71;102505.97;52329;1262;1100890;-83
2024/01/10 01:25:18;;;;;;;129.60;50.70;;;;;;;-7.69;83.79;102510.67;52578;1263;1101127;-82
2024/01/10 01:28:05;;;;;;;136.40;53.10;;;;;;;-7.70;83.58;102508.27;52445;1262;1100450;-82
2024/01/10 01:30:51;;;;;;;144.10;56.30;;;;;;;-7.69;83.85;102508.60;52625;1261;1101516;-81
2024/01/10 01:33:37;;;;;;;126.40;50.80;;;;;;;-7.70;84.02;102501.84;52596;1262;1101938;-83
2024/01/10 01:36:23;;;;;;;146.80;56.70;;;;;;;-7.73;83.81;102493.75;52577;1261;1101574;-83
2024/01/10 01:39:09;;;;;;;138.50;54.50;;;;;;;-7.74;83.91;102490.65;52634;1257;1100879;-83
2024/01/10 01:41:54;;;;;;;131.60;51.20;;;;;;;-7.73;83.58;102493.58;52428;1261;1100343;-82
2024/01/10 01:44:40;;;;;;;124.70;50.00;;;;;;;-7.74;83.83;102487.02;52448;1262;1101157;-82
2024/01/10 01:47:27;;;;;;;121.80;47.60;;;;;;;-7.77;83.87;102481.51;52533;1262;1101133;-82
2024/01/10 01:50:13;;;;;;;154.40;60.30;;;;;;;-7.79;83.96;102478.94;52442;1261;1100755;-83
2024/01/10 01:52:59;;;;;;;137.90;54.10;;;;;;;-7.76;84.09;102477.86;52423;1261;1100762;-82
2024/01/10 01:55:45;;;;;;;120.30;46.80;;;;;;;-7.77;83.89;102475.77;52398;1258;1100453;-82
2024/01/10 01:58:32;;;;;;;146.10;55.10;;;;;;;-7.80;83.85;102472.36;52525;1262;1101099;-83
2024/01/10 02:01:21;;;;;;;132.60;50.90;;;;;;;-7.79;84.16;102469.40;52577;1261;1100979;-82
2024/01/10 02:04:07;;;;;;;131.00;53.70;;;;;;;-7.77;84.00;102474.23;52531;1258;1100910;-82
2024/01/10 02:06:53;;;;;;;145.50;58.30;;;;;;;-7.77;84.12;102473.20;52456;1257;1100904;-82
2024/01/10 02:09:39;;;;;;;144.60;58.20;;;;;;;-7.75;84.34;102466.40;52567;1257;1101599;-82
2024/01/10 02:12:24;;;;;;;120.90;49.50;;;;;;;-7.75;84.26;102469.00;52506;1261;1101234;-82
2024/01/10 02:15:11;;;;;;;133.90;55.10;;;;;;;-7.77;84.14;102470.23;52588;1262;1101770;-82
2024/01/10 02:17:57;;;;;;;123.80;51.20;;;;;;;-7.77;84.13;102473.02;52514;1261;1100707;-82
2024/01/10 02:20:44;;;;;;;133.00;53.40;;;;;;;-7.76;84.12;102470.04;52273;1264;1100515;-83
2024/01/10 02:23:30;;;;;;;129.00;48.50;;;;;;;-7.77;83.98;102466.06;52507;1257;1101643;-82
2024/01/10 02:26:16;;;;;;;143.40;53.60;;;;;;;-7.77;84.10;102472.84;52339;1258;1101788;-83
2024/01/10 02:29:03;;;;;;;130.50;50.40;;;;;;;-7.77;84.20;102467.27;52318;1264;1101163;-82
2024/01/10 02:31:49;;;;;;;139.60;54.30;;;;;;;-7.76;84.22;102467.27;52460;1263;1101043;-82
2024/01/10 02:34:35;;;;;;;128.00;50.90;;;;;;;-7.75;84.07;102462.06;52201;1262;1102252;-83
2024/01/10 02:37:21;;;;;;;131.40;53.20;;;;;;;-7.74;84.07;102462.90;52490;1255;1100976;-81
2024/01/10 02:40:08;;;;;;;147.20;56.60;;;;;;;-7.73;84.09;102471.39;52359;1256;1101718;-82
2024/01/10 02:42:54;;;;;;;136.70;54.00;;;;;;;-7.72;84.04;102469.97;52474;1260;1102018;-82
2024/01/10 02:45:39;;;;;;;142.70;53.70;;;;;;;-7.72;84.25;102469.98;52387;1257;1101542;-83
2024/01/10 02:48:25;;;;;;;123.80;49.60;;;;;;;-7.73;84.07;102469.30;52473;1257;1101207;-83
2024/01/10 02:51:10;;;;;;;130.80;54.50;;;;;;;-7.72;83.95;102465.64;52524;1257;1100226;-82
2024/01/10 02:53:56;;;;;;;133.00;54.20;;;;;;;-7.72;84.12;102459.23;52501;1261;1100941;-82
2024/01/10 02:56:41;;;;;;;137.00;53.20;;;;;;;-7.74;84.01;102448.48;52357;1263;1100887;-82
2024/01/10 02:59:27;;;;;;;137.60;56.80;;;;;;;-7.73;83.99;102446.93;52251;1266;1101342;-83
2024/01/10 03:02:13;;;;;;;137.80;55.90;;;;;;;-7.73;84.13;102442.42;52490;1262;1100172;-82
2024/01/10 03:04:58;;;;;;;143.50;55.30;;;;;;;-7.75;83.98;102442.80;52493;1258;1100325;-82
2024/01/10 03:07:44;;;;;;;129.10;51.90;;;;;;;-7.74;83.75;102436.90;52356;1261;1100437;-83
2024/01/10 03:10:29;;;;;;;144.70;55.40;;;;;;;-7.77;84.05;102439.36;52585;1262;1101321;-83
2024/01/10 03:13:15;;;;;;;130.60;54.90;;;;;;;-7.77;84.12;102440.23;52610;1259;1101097;-83
2024/01/10 03:16:01;;;;;;;160.90;58.20;;;;;;;-7.79;83.89;102445.98;52335;1263;1101283;-82
2024/01/10 03:18:46;;;;;;;129.00;51.20;;;;;;;-7.80;84.00;102442.55;52505;1256;1101567;-81
2024/01/10 03:21:32;;;;;;;129.90;52.90;;;;;;;-7.84;83.84;102432.54;52550;1257;1101107;-82
2024/01/10 03:24:18;;;;;;;127.90;52.30;;;;;;;-7.86;84.07;102432.77;52416;1256;1101918;-82
2024/01/10 03:27:04;;;;;;;134.80;53.00;;;;;;;-7.88;84.11;102426.04;52363;1264;1100886;-82
2024/01/10 03:29:51;;;;;;;145.40;55.20;;;;;;;-7.89;84.07;102427.77;52227;1263;1146881;-83
2024/01/10 03:32:36;;;;;;;135.10;52.80;;;;;;;-7.88;84.25;102429.66;52572;1258;1100836;-83
2024/01/10 03:35:22;;;;;;;126.10;47.90;;;;;;;-7.89;84.23;102424.48;52345;1257;1100774;-82
2024/01/10 03:38:08;;;;;;;132.70;51.00;;;;;;;-7.92;84.41;102420.71;52173;1261;1102087;-82
2024/01/10 03:40:53;;;;;;;146.80;57.80;;;;;;;-7.92;84.56;102414.82;52422;1256;1101237;-82
2024/01/10 03:43:39;;;;;;;136.40;55.60;;;;;;;-7.92;84.55;102413.77;52508;1260;1100666;-82
2024/01/10 03:46:25;;;;;;;128.80;51.30;;;;;;;-7.91;84.64;102414.46;52392;1257;1100839;-83
2024/01/10 03:49:10;;;;;;;137.50;53.60;;;;;;;-7.92;84.80;102414.14;52237;1271;1100452;-83
2024/01/10 03:51:56;;;;;;;139.40;55.10;;;;;;;-7.93;84.74;102411.55;52270;1258;1100771;-82
2024/01/10 03:54:42;;;;;;;139.70;56.70;;;;;;;-7.96;84.71;102405.19;52344;1257;1101058;-82
2024/01/10 03:57:28;;;;;;;134.10;55.60;;;;;;;-7.95;84.91;102403.25;52364;1261;1101315;-81
2024/01/10 04:00:14;;;;;;;134.70;55.10;;;;;;;-7.96;84.90;102397.91;52324;1257;1101180;-82
2024/01/10 04:02:59;;;;;;;131.10;56.00;;;;;;;-7.94;85.23;102400.30;52522;1257;1101166;-83
2024/01/10 04:05:45;;;;;;;135.70;58.20;;;;;;;-7.94;84.94;102396.31;52375;1260;1101036;-83
2024/01/10 04:08:31;;;;;;;131.50;51.40;;;;;;;-7.94;85.07;102394.58;52317;1257;1101279;-83
2024/01/10 04:11:16;;;;;;;146.30;59.80;;;;;;;-7.96;85.14;102393.57;52424;1258;1101025;-82
2024/01/10 04:14:02;;;;;;;153.50;60.10;;;;;;;-7.99;84.99;102396.40;52295;1257;1101079;-82
2024/01/10 04:16:48;;;;;;;147.10;61.00;;;;;;;-7.98;85.01;102392.73;52385;1258;1101918;-83
2024/01/10 04:19:33;;;;;;;134.20;54.30;;;;;;;-7.98;85.17;102395.17;52348;1257;1100414;-82
2024/01/10 04:22:19;;;;;;;138.10;56.30;;;;;;;-7.99;85.27;102387.38;52563;1263;1101770;-82
2024/01/10 04:25:07;;;;;;;144.70;58.50;;;;;;;-8.00;85.30;102382.89;52572;1260;1101956;-84
2024/01/10 04:27:53;;;;;;;142.60;56.90;;;;;;;-8.01;85.31;102379.96;52469;1257;1101469;-83
2024/01/10 04:30:39;;;;;;;137.40;55.90;;;;;;;-8.00;85.20;102377.35;52428;1260;1101180;-83
2024/01/10 04:33:24;;;;;;;133.10;56.50;;;;;;;-8.00;85.20;102370.23;52353;1267;1101350;-82
2024/01/10 04:36:10;;;;;;;152.80;59.60;;;;;;;-7.99;85.37;102367.45;52468;1260;1100238;-83
2024/01/10 04:38:57;;;;;;;168.30;66.50;;;;;;;-7.99;85.47;102372.83;52498;1260;1101689;-83
2024/01/10 04:41:44;;;;;;;137.50;56.30;;;;;;;-8.01;85.22;102366.09;52465;1257;1101118;-82
2024/01/10 04:44:30;;;;;;;148.00;58.90;;;;;;;-8.03;85.11;102365.96;52528;1258;1101056;-83
2024/01/10 04:47:15;;;;;;;142.20;58.90;;;;;;;-8.04;85.49;102363.73;52393;1263;1100802;-83
2024/01/10 04:50:01;;;;;;;151.90;60.30;;;;;;;-8.02;85.52;102370.09;52386;1256;1100856;-82
2024/01/10 04:52:47;;;;;;;143.70;58.50;;;;;;;-8.02;85.49;102374.44;52565;1257;1100435;-82
2024/01/10 04:55:32;;;;;;;146.80;54.60;;;;;;;-8.01;85.61;102374.07;52634;1261;1100789;-82
2024/01/10 04:58:18;;;;;;;146.80;59.20;;;;;;;-8.05;85.47;102367.73;52420;1258;1100852;-83
2024/01/10 05:01:03;;;;;;;136.10;58.00;;;;;;;-8.09;85.19;102373.34;52427;1261;1100762;-83
2024/01/10 05:03:50;;;;;;;155.00;59.80;;;;;;;-8.08;85.45;102376.11;52378;1257;1102068;-82
2024/01/10 05:06:36;;;;;;;148.40;61.10;;;;;;;-8.10;85.74;102377.86;52362;1257;1101140;-83
2024/01/10 05:09:21;;;;;;;156.10;60.80;;;;;;;-8.09;85.79;102382.17;52472;1260;1101428;-83
2024/01/10 05:12:07;;;;;;;149.80;61.90;;;;;;;-8.07;85.70;102385.79;52420;1257;1101244;-82
2024/01/10 05:14:52;;;;;;;156.80;64.50;;;;;;;-8.10;85.43;102384.10;52447;1256;1101453;-82
2024/01/10 05:17:39;;;;;;;161.30;63.60;;;;;;;-8.10;85.74;102392.08;52452;1258;1100258;-82
2024/01/10 05:20:25;;;;;;;166.40;68.90;;;;;;;-8.11;85.80;102390.02;52226;1258;1101124;-82
2024/01/10 05:23:11;;;;;;;170.60;67.70;;;;;;;-8.11;85.91;102392.27;52270;1257;1101299;-82
2024/01/10 05:25:56;;;;;;;156.40;66.10;;;;;;;-8.11;85.88;102398.85;52465;1260;1101866;-83
2024/01/10 05:28:42;;;;;;;166.10;66.90;;;;;;;-8.08;86.02;102396.55;52368;1257;1101373;-82
2024/01/10 05:31:28;;;;;;;173.10;72.10;;;;;;;-8.06;85.97;102395.30;52257;1257;1100546;-82
2024/01/10 05:34:13;;;;;;;278.60;121.10;;;;;;;-8.06;85.89;102390.98;52542;1257;1100738;-83
2024/01/10 05:36:59;;;;;;;171.90;79.10;;;;;;;-8.05;86.09;102396.85;52537;1257;1100758;-81
2024/01/10 05:39:44;;;;;;;180.10;78.70;;;;;;;-8.05;85.85;102398.59;52503;1258;1100407;-83
2024/01/10 05:42:30;;;;;;;178.50;73.00;;;;;;;-8.04;85.84;102394.75;52340;1257;1101662;-83
2024/01/10 05:45:18;;;;;;;191.70;75.70;;;;;;;-8.06;85.72;102397.55;52529;1257;1100924;-83
2024/01/10 05:48:04;;;;;;;169.30;71.00;;;;;;;-8.03;85.96;102404.09;52471;1257;1100671;-83
2024/01/10 05:50:50;;;;;;;170.30;71.80;;;;;;;-8.02;85.95;102407.02;52444;1257;1100307;-82
2024/01/10 05:53:37;;;;;;;164.70;67.80;;;;;;;-8.02;85.78;102399.40;52297;1258;1100443;-83
2024/01/10 05:56:23;;;;;;;173.10;70.90;;;;;;;-8.05;85.82;102392.52;52546;1257;1100180;-84
2024/01/10 05:59:12;;;;;;;166.50;71.60;;;;;;;-8.06;85.96;102389.23;52447;1256;1100895;-82
2024/01/10 06:01:58;;;;;;;182.70;73.30;;;;;;;-8.07;85.89;102385.44;52554;1261;1101139;-82
2024/01/10 06:04:44;;;;;;;167.10;66.60;;;;;;;-8.06;85.58;102376.07;52505;1257;1101020;-83
2024/01/10 06:07:30;;;;;;;177.60;68.10;;;;;;;-8.06;86.01;102377.97;52425;1270;1100200;-82
2024/01/10 06:10:17;;;;;;;173.40;67.10;;;;;;;-8.04;85.96;102382.80;52530;1260;1100607;-82
2024/01/10 06:13:03;;;;;;;172.10;69.10;;;;;;;-8.05;85.72;102378.82;52529;1258;1100477;-82
2024/01/10 06:15:49;;;;;;;177.00;72.00;;;;;;;-8.03;86.09;102376.54;52492;1257;1101640;-81
2024/01/10 06:18:34;;;;;;;183.60;72.00;;;;;;;-8.01;85.78;102376.67;52462;1255;1101453;-82
2024/01/10 06:21:20;;;;;;;167.60;67.40;;;;;;;-8.02;85.69;102378.25;52278;1257;1101549;-82
2024/01/10 06:24:06;;;;;;;159.00;63.10;;;;;;;-8.05;85.71;102377.97;52449;1257;1101676;-84
2024/01/10 06:26:52;;;;;;;150.20;62.30;;;;;;;-8.08;85.50;102371.94;52596;1260;1100543;-82
2024/01/10 06:29:38;;;;;;;167.30;67.20;;;;;;;-8.09;85.79;102373.86;52467;1261;1101038;-82
2024/01/10 06:32:23;;;;;;;173.90;68.60;;;;;;;-8.12;85.91;102368.04;52556;1256;1110638;-82
2024/01/10 06:35:09;;;;;;;168.10;71.30;;;;;;;-8.12;85.71;102366.48;52553;1257;1100404;-82
2024/01/10 06:37:55;;;;;;;167.90;69.30;;;;;;;-8.12;85.59;102362.83;52346;1260;1100366;-82
2024/01/10 06:40:41;;;;;;;184.20;71.50;;;;;;;-8.14;85.73;102367.71;52306;1257;1101738;-82
2024/01/10 06:43:27;;;;;;;159.00;67.10;;;;;;;-8.14;86.07;102367.20;52340;1257;1101039;-82
2024/01/10 06:46:12;;;;;;;171.50;69.80;;;;;;;-8.15;85.83;102366.70;52543;1258;1100937;-82
2024/01/10 06:48:59;;;;;;;150.50;61.70;;;;;;;-8.15;85.94;102374.14;52432;1257;1100302;-82
2024/01/10 06:51:45;;;;;;;159.70;66.00;;;;;;;-8.19;85.65;102371.95;52410;1257;1101079;-83
2024/01/10 06:54:30;;;;;;;187.60;72.50;;;;;;;-8.21;85.78;102374.08;52551;1258;1101308;-82
2024/01/10 06:57:17;;;;;;;167.00;66.60;;;;;;;-8.20;85.99;102371.64;52332;1260;1101224;-83
2024/01/10 07:00:06;;;;;;;192.40;72.00;;;;;;;-8.16;86.08;102374.70;52305;1257;1101638;-82
2024/01/10 07:02:53;;;;;;;166.40;62.60;;;;;;;-8.16;86.18;102370.70;52476;1258;1101947;-81
2024/01/10 07:05:38;;;;;;;147.30;61.20;;;;;;;-8.16;85.94;102383.16;52374;1256;1100518;-83
2024/01/10 07:08:26;;;;;;;191.20;78.50;;;;;;;-8.15;86.57;102384.19;52442;1257;1100760;-81
2024/01/10 07:11:12;;;;;;;177.40;75.50;;;;;;;-8.08;86.76;102384.93;52317;1257;1112831;-83
2024/01/10 07:13:59;;;;;;;174.30;74.10;;;;;;;-8.07;86.48;102383.70;52339;1257;1102029;-82
2024/01/10 07:16:45;;;;;;;188.70;74.70;;;;;;;-8.05;85.84;102388.34;52332;1257;1101180;-82
2024/01/10 07:19:31;;;;;;;173.10;71.20;;;;;;;-8.05;86.13;102389.90;52344;1258;1100781;-82
2024/01/10 07:22:18;;;;;;;167.60;67.30;;;;;;;-8.01;86.15;102395.38;52534;1261;1100658;-83
2024/01/10 07:25:04;;;;;;;157.90;66.00;;;;;;;-8.01;85.98;102395.55;52453;1257;1101399;-83
2024/01/10 07:27:53;;;;;;;186.80;74.90;;;;;;;-8.01;85.99;102397.98;52417;1258;1100838;-82
2024/01/10 07:30:39;;;;;;;186.00;72.80;;;;;;;-7.98;86.04;102398.80;52427;1257;1100868;-83
2024/01/10 07:33:24;;;;;;;189.90;79.30;;;;;;;-7.98;86.02;102396.20;52511;1260;1100719;-83
2024/01/10 07:36:10;;;;;;;240.00;93.20;;;;;;;-7.96;86.23;102398.77;52366;1257;1101145;-83
2024/01/10 07:38:59;;;;;;;360.60;136.90;;;;;;;-7.95;86.05;102391.83;52281;1257;1101581;-82
2024/01/10 07:41:45;;;;;;;225.60;95.60;;;;;;;-7.93;86.19;102385.88;52513;1263;1101013;-82
2024/01/10 07:44:31;;;;;;;201.30;85.80;;;;;;;-7.91;86.01;102385.16;52375;1264;1101686;-82
2024/01/10 07:47:18;;;;;;;195.10;77.70;;;;;;;-7.88;86.23;102379.39;52425;1258;1101122;-82
2024/01/10 07:50:09;;;;;;;196.20;82.20;;;;;;;-7.88;86.09;102373.84;52441;1257;1101148;-84
2024/01/10 07:52:55;;;;;;;;;;;;;;;-7.87;86.30;102371.21;52342;1255;1101132;-83
2024/01/10 07:55:40;;;;;;;166.80;68.90;;;;;;;-7.86;86.18;102370.33;52382;1257;1101723;-83
2024/01/10 07:58:26;;;;;;;200.70;75.90;;;;;;;-7.81;86.45;102375.81;52529;1263;1100245;-83
2024/01/10 08:01:11;;;;;;;177.00;70.30;;;;;;;-7.74;86.29;102374.28;52251;1261;1100845;-83
2024/01/10 08:03:57;;;;;;;190.80;79.00;;;;;;;-7.69;86.39;102379.91;52250;1263;1101021;-83
2024/01/10 08:06:43;;;;;;;179.40;70.70;;;;;;;-7.67;86.36;102377.45;52297;1257;1101438;-84
2024/01/10 08:09:29;;;;;;;180.10;72.90;;;;;;;-7.67;86.06;102382.30;52544;1258;1101424;-83
2024/01/10 08:12:15;;;;;;;173.10;67.80;;;;;;;-7.66;86.36;102382.27;52476;1260;1100775;-83
2024/01/10 08:15:00;;;;;;;187.80;76.00;;;;;;;-7.64;86.23;102386.23;52429;1257;1101052;-83
2024/01/10 08:17:46;;;;;;;173.50;68.70;;;;;;;-7.65;86.09;102380.35;52347;1257;1100817;-81
2024/01/10 08:20:31;;;;;;;162.10;64.70;;;;;;;-7.64;86.34;102379.47;52494;1258;1101902;-82
2024/01/10 08:23:17;;;;;;;149.60;63.00;;;;;;;-7.63;86.35;102377.91;52386;1264;1101107;-82
2024/01/10 08:26:08;;;;;;;162.90;66.10;;;;;;;-7.64;86.39;102378.27;52482;1256;1100737;-82
2024/01/10 08:28:54;;;;;;;177.60;68.80;;;;;;;-7.66;86.72;102382.64;52453;1255;1100727;-83
2024/01/10 08:31:40;;;;;;;160.90;61.50;;;;;;;-7.66;86.63;102384.88;52524;1257;1100621;-83
2024/01/10 08:34:26;;;;;;;159.30;66.50;;;;;;;-7.64;86.90;102378.59;52497;1259;1100303;-83
2024/01/10 08:37:12;;;;;;;169.40;64.90;;;;;;;-7.61;87.15;102376.11;52434;1256;1101104;-83
2024/01/10 08:39:59;;;;;;;160.10;65.90;;;;;;;-7.58;87.16;102375.38;52562;1257;1100434;-83
2024/01/10 08:42:45;;;;;;;171.90;66.60;;;;;;;-7.58;86.84;102379.54;52348;1257;1101046;-83
2024/01/10 08:45:31;;;;;;;175.90;70.10;;;;;;;-7.54;87.19;102375.65;52256;1260;1102065;-83
2024/01/10 08:48:17;;;;;;;151.10;64.30;;;;;;;-7.51;87.40;102368.46;52418;1255;1102308;-83
2024/01/10 08:51:03;;;;;;;157.60;66.60;;;;;;;-7.47;87.48;102370.99;52476;1260;1100987;-83
2024/01/10 08:53:48;;;;;;;170.00;73.80;;;;;;;-7.42;87.43;102375.05;52456;1260;1100372;-83
2024/01/10 08:56:34;;;;;;;191.50;79.90;;;;;;;-7.39;87.72;102366.48;52325;1257;1101250;-83
2024/01/10 08:59:20;;;;;;;160.00;72.00;;;;;;;-7.32;87.97;102367.91;52451;1260;1100656;-83
2024/01/10 09:02:07;;;;;;;173.60;73.20;;;;;;;-7.26;87.88;102367.27;52373;1258;1100728;-85
2024/01/10 09:04:54;;;;;;;163.10;71.50;;;;;;;-7.20;88.01;102375.98;52625;1257;1101006;-81
2024/01/10 09:07:40;;;;;;;172.20;74.20;;;;;;;-7.13;88.22;102380.53;52468;1255;1100527;-82
2024/01/10 09:10:27;;;;;;;164.90;67.80;;;;;;;-7.08;88.11;102380.60;52509;1255;1100491;-84
2024/01/10 09:13:13;;;;;;;161.30;71.10;;;;;;;-7.03;87.93;102380.48;52272;1267;1100935;-83
2024/01/10 09:15:59;;;;;;;157.00;65.80;;;;;;;-6.96;88.14;102376.90;52505;1263;1101417;-82
2024/01/10 09:18:45;;;;;;;161.60;66.40;;;;;;;-6.93;88.10;102377.15;52434;1255;1100850;-82
2024/01/10 09:21:30;;;;;;;171.00;72.70;;;;;;;-6.88;88.14;102384.34;52574;1264;1101245;-82
2024/01/10 09:24:16;;;;;;;167.70;68.40;;;;;;;-6.81;88.21;102388.71;52622;1257;1100642;-82
2024/01/10 09:27:01;;;;;;;180.50;72.90;;;;;;;-6.75;88.28;102387.52;52453;1257;1101300;-83
2024/01/10 09:29:47;;;;;;;160.80;74.40;;;;;;;-6.69;88.10;102383.05;52448;1257;1100421;-83
2024/01/10 09:32:33;;;;;;;153.50;68.40;;;;;;;-6.63;88.35;102376.14;52580;1258;1100481;-82
2024/01/10 09:35:18;;;;;;;162.10;66.70;;;;;;;-6.59;88.36;102372.75;52470;1257;1100880;-82
2024/01/10 09:38:04;;;;;;;159.70;68.70;;;;;;;-6.55;88.29;102373.52;52368;1258;1101549;-81
2024/01/10 09:40:49;;;;;;;165.20;66.50;;;;;;;-6.50;88.05;102374.79;52603;1257;1100542;-82
2024/01/10 09:43:35;;;;;;;150.10;64.50;;;;;;;-6.44;88.48;102369.79;52541;1260;1100903;-82
2024/01/10 09:46:21;;;;;;;148.00;62.00;;;;;;;-6.39;88.66;102370.00;52509;1257;1101198;-82
2024/01/10 09:49:07;;;;;;;132.60;55.10;;;;;;;-6.32;88.52;102370.16;52331;1258;1101098;-83
2024/01/10 09:52:00;;;;;;;143.10;63.60;;;;;;;-6.27;88.41;102368.32;52463;1257;1100843;-82
2024/01/10 09:54:48;;;;;;;125.80;54.60;;;;;;;-6.23;88.53;102373.42;52570;1258;1100467;-82
2024/01/10 09:57:36;;;;;;;135.90;57.80;;;;;;;-6.20;88.36;102371.98;52483;1257;1100862;-82
2024/01/10 10:00:23;;;;;;;126.30;53.90;;;;;;;-6.17;88.68;102375.73;52620;1257;1101711;-82
2024/01/10 10:03:12;;;;;;;118.10;55.40;;;;;;;-6.12;88.88;102382.20;52408;1255;1100676;-82
2024/01/10 10:05:57;;;;;;;122.80;51.30;;;;;;;-6.08;88.98;102379.67;52411;1255;1101182;-81
2024/01/10 10:08:43;;;;;;;126.00;54.10;;;;;;;-6.06;88.97;102376.30;52443;1255;1101143;-82
2024/01/10 10:11:29;;;;;;;123.10;51.20;;;;;;;-6.02;89.08;102375.71;52518;1262;1100301;-82
2024/01/10 10:14:16;;;;;;;129.00;57.60;;;;;;;-5.98;89.42;102373.49;52567;1260;1101028;-82
2024/01/10 10:17:18;;;;;;;125.20;56.60;;;;;;;-5.92;89.55;102367.80;52335;1261;1100864;-82
2024/01/10 10:20:05;;;;;;;128.10;52.10;;;;;;;-5.86;89.64;102377.90;52491;1255;1101098;-82
2024/01/10 10:23:01;;;;;;;127.20;51.40;;;;;;;-5.80;89.61;102372.30;52522;1260;1100279;-82
2024/01/10 10:25:48;;;;;;;120.70;54.40;;;;;;;-5.75;89.79;102372.70;52419;1256;1100266;-82
2024/01/10 10:28:34;;;;;;;116.60;52.10;;;;;;;-5.69;89.61;102372.02;52571;1261;1101966;-83
2024/01/10 10:31:20;;;;;;;107.80;47.20;;;;;;;-5.65;89.86;102364.95;52538;1256;1100900;-82
2024/01/10 10:34:06;;;;;;;138.10;53.70;;;;;;;-5.56;90.40;102357.90;52485;1258;1100539;-82
2024/01/10 10:36:51;;;;;;;117.70;50.10;;;;;;;-5.48;90.09;102354.20;52534;1264;1101467;-82
2024/01/10 10:39:38;;;;;;;107.40;47.10;;;;;;;-5.43;90.11;102345.71;52227;1263;1101806;-82
2024/01/10 10:42:28;;;;;;;112.30;49.90;;;;;;;-5.39;89.79;102331.67;52394;1258;1101386;-82
2024/01/10 10:45:17;;;;;;;110.80;46.20;;;;;;;-5.37;89.91;102326.41;52337;1256;1101653;-82
2024/01/10 10:48:02;;;;;;;104.50;45.90;;;;;;;-5.33;90.46;102327.15;52528;1257;1101497;-82
2024/01/10 10:50:56;;;;;;;94.30;43.40;;;;;;;-5.31;90.61;102321.33;52670;1255;1100618;-82
2024/01/10 10:53:45;;;;;;;98.50;41.20;;;;;;;-5.28;90.70;102310.95;52475;1255;1100783;-81
2024/01/10 10:56:34;;;;;;;101.00;44.20;;;;;;;-5.24;91.10;102314.50;52605;1258;1101668;-81
2024/01/10 10:59:22;;;;;;;90.90;39.50;;;;;;;-5.19;91.28;102319.41;52360;1257;1101233;-81
2024/01/10 11:02:10;;;;;;;75.90;32.00;;;;;;;-5.15;91.53;102321.20;52555;1255;1100571;-81
2024/01/10 11:04:58;;;;;;;91.10;34.80;;;;;;;-5.13;91.58;102318.88;52439;1258;1100903;-82
2024/01/10 11:07:44;;;;;;;90.60;38.50;;;;;;;-5.11;91.80;102317.59;52476;1255;1101274;-82
2024/01/10 11:10:33;;;;;;;85.80;38.30;;;;;;;-5.07;91.82;102318.88;52671;1258;1100742;-82
2024/01/10 11:14:03;;;;;;;89.90;39.60;;;;;;;-5.04;91.80;102315.83;52457;1261;1101928;-82
2024/01/10 11:17:33;;;;;;;92.50;39.10;;;;;;;-5.02;91.99;102305.64;52331;1258;1100603;-81
2024/01/10 11:20:45;;;;;;;84.20;37.70;;;;;;;-4.99;91.85;102301.73;52273;1255;1100721;-82
2024/01/10 11:23:44;;;;;;;90.50;43.70;;;;;;;-4.96;91.96;102297.29;52478;1257;1100290;-82
2024/01/10 11:26:33;;;;;;;95.30;40.60;;;;;;;-4.92;92.08;102298.71;52416;1256;1100671;-82
2024/01/10 11:29:19;;;;;;;109.70;46.70;;;;;;;-4.88;91.98;102292.33;52545;1261;1101533;-82
2024/01/10 11:32:16;;;;;;;100.80;44.30;;;;;;;-4.83;92.06;102292.69;52457;1257;1100870;-82
2024/01/10 11:35:11;;;;;;;84.80;39.50;;;;;;;-4.79;92.03;102293.59;52449;1257;1101752;-82
2024/01/10 11:37:59;;;;;;;113.90;44.40;;;;;;;-4.75;91.99;102294.17;52549;1255;1102125;-82
2024/01/10 11:40:47;;;;;;;105.70;47.50;;;;;;;-4.72;91.96;102295.30;52597;1260;1101830;-82
2024/01/10 11:43:33;;;;;;;106.60;46.30;;;;;;;-4.68;91.88;102291.01;52332;1255;1101274;-82
2024/01/10 11:46:19;;;;;;;107.30;47.50;;;;;;;-4.65;91.93;102279.04;52501;1258;1100599;-81
2024/01/10 11:49:13;;;;;;;105.40;46.40;;;;;;;-4.60;91.89;102268.77;52479;1260;1102235;-82
2024/01/10 11:52:00;;;;;;;104.20;43.50;;;;;;;-4.55;92.11;102268.27;53334;1255;1101060;-82
2024/01/10 11:54:47;;;;;;;106.90;45.50;;;;;;;-4.51;91.89;102263.77;52497;1255;1101296;-81
2024/01/10 11:57:33;;;;;;;104.60;44.60;;;;;;;-4.48;91.69;102254.27;52506;1255;1100868;-81
2024/01/10 12:00:20;;;;;;;98.70;43.60;;;;;;;-4.45;91.72;102250.69;52398;1262;1100325;-81
2024/01/10 12:03:07;;;;;;;109.00;47.10;;;;;;;-4.44;91.81;102245.59;52687;1255;1101570;-81
2024/01/10 12:05:53;;;;;;;103.50;45.90;;;;;;;-4.39;91.94;102244.35;52451;1260;1101714;-82
2024/01/10 12:08:39;;;;;;;96.00;43.40;;;;;;;-4.35;91.89;102243.54;52490;1257;1100421;-83
2024/01/10 12:11:25;;;;;;;108.00;45.50;;;;;;;-4.33;91.62;102242.04;52433;1255;1101382;-83
2024/01/10 12:14:11;;;;;;;105.10;45.70;;;;;;;-4.29;91.89;102245.38;52621;1257;1101421;-82